createdAt,value
2019-01-21T00:00:18.394Z,17.10
2019-01-21T00:02:52.135Z,21.80
2019-01-21T00:05:23.595Z,17.87
2019-01-21T00:08:00.090Z,20.60
2019-01-21T00:10:32.127Z,20.30
2019-01-21T00:13:03.512Z,19.33
2019-01-21T00:15:35.220Z,18.77
2019-01-21T00:18:06.943Z,18.53
2019-01-21T00:20:38.125Z,15.83
2019-01-21T00:23:09.400Z,17.03
2019-01-21T00:25:40.650Z,16.80
2019-01-21T00:28:12.002Z,20.13
2019-01-21T00:30:43.132Z,17.17
2019-01-21T00:33:14.783Z,20.73
2019-01-21T00:35:46.972Z,18.83
2019-01-21T00:38:18.308Z,18.40
2019-01-21T00:40:49.364Z,15.67
2019-01-21T00:43:20.957Z,16.37
2019-01-21T00:45:51.875Z,15.57
2019-01-21T00:48:24.187Z,13.97
2019-01-21T00:50:55.898Z,11.77
2019-01-21T00:53:27.194Z,13.67
2019-01-21T00:55:58.271Z,14.77
2019-01-21T00:58:29.224Z,15.80
2019-01-21T01:01:00.577Z,14.97
2019-01-21T01:03:31.922Z,15.10
2019-01-21T01:06:03.133Z,15.73
2019-01-21T01:08:34.113Z,13.93
2019-01-21T01:11:05.296Z,13.07
2019-01-21T01:13:36.503Z,18.83
2019-01-21T01:16:08.034Z,12.20
2019-01-21T01:18:39.201Z,14.50
2019-01-21T01:21:10.430Z,16.97
2019-01-21T01:23:42.245Z,16.87
2019-01-21T01:26:13.316Z,16.87
2019-01-21T01:28:44.503Z,16.07
2019-01-21T01:31:16.247Z,16.63
2019-01-21T01:33:47.615Z,16.17
2019-01-21T01:36:18.701Z,16.23
2019-01-21T01:38:59.723Z,12.90
2019-01-21T01:41:35.232Z,17.50
2019-01-21T01:44:06.230Z,15.50
2019-01-21T01:46:37.619Z,15.73
2019-01-21T01:49:09.209Z,19.63
2019-01-21T01:51:40.525Z,19.67
2019-01-21T01:54:11.884Z,17.83
2019-01-21T01:56:42.975Z,19.47
2019-01-21T01:59:15.033Z,17.13
2019-01-21T02:01:46.014Z,17.83
2019-01-21T02:04:17.139Z,18.87
2019-01-21T02:06:48.216Z,22.33
2019-01-21T02:09:19.725Z,18.47
2019-01-21T02:11:50.964Z,17.20
2019-01-21T02:14:23.144Z,21.53
2019-01-21T02:16:54.267Z,22.07
2019-01-21T02:19:26.774Z,21.47
2019-01-21T02:21:58.566Z,18.70
2019-01-21T02:24:35.215Z,23.97
2019-01-21T02:27:26.119Z,22.50
2019-01-21T02:30:07.941Z,24.67
2019-01-21T02:33:22.684Z,17.63
2019-01-21T02:36:19.016Z,23.87
2019-01-21T02:39:13.914Z,23.93
2019-01-21T02:42:17.939Z,25.43
2019-01-21T02:45:15.387Z,22.67
2019-01-21T02:48:07.940Z,24.23
2019-01-21T02:50:49.043Z,23.10
2019-01-21T02:53:46.331Z,26.33
2019-01-21T02:56:39.097Z,25.97
2019-01-21T02:59:52.521Z,24.17
2019-01-21T03:03:10.495Z,23.23
2019-01-21T03:05:55.387Z,25.27
2019-01-21T03:09:12.260Z,26.73
2019-01-21T03:12:45.889Z,28.13
2019-01-21T03:16:03.323Z,29.67
2019-01-21T03:18:58.015Z,26.47
2019-01-21T03:22:28.140Z,28.90
2019-01-21T03:25:47.610Z,26.57
2019-01-21T03:29:10.904Z,28.40
2019-01-21T03:32:12.645Z,27.27
2019-01-21T03:35:38.770Z,28.53
2019-01-21T03:38:58.358Z,26.83
2019-01-21T03:42:25.499Z,29.87
2019-01-21T03:45:30.553Z,30.57
2019-01-21T03:48:36.628Z,31.20
2019-01-21T03:51:59.678Z,30.90
2019-01-21T03:54:36.329Z,30.13
2019-01-21T03:57:38.625Z,28.17
2019-01-21T04:00:52.367Z,30.93
2019-01-21T04:03:50.245Z,30.50
2019-01-21T04:07:07.462Z,28.43
2019-01-21T04:10:18.365Z,28.00
2019-01-21T04:13:26.144Z,30.03
2019-01-21T04:16:19.408Z,33.43
2019-01-21T04:19:31.620Z,31.60
2019-01-21T04:22:28.674Z,33.87
2019-01-21T04:25:28.098Z,31.50
2019-01-21T04:28:44.136Z,33.10
2019-01-21T04:32:14.124Z,33.60
2019-01-21T04:35:41.667Z,32.10
2019-01-21T04:38:58.886Z,31.77
2019-01-21T04:42:20.023Z,29.83
2019-01-21T04:45:01.056Z,32.60
2019-01-21T04:48:22.112Z,36.93
2019-01-21T04:51:29.749Z,31.47
2019-01-21T04:54:39.913Z,30.63
2019-01-21T04:57:40.548Z,32.80
2019-01-21T05:00:43.127Z,28.17
2019-01-21T05:03:39.882Z,30.03
2019-01-21T05:06:57.520Z,30.53
2019-01-21T05:10:02.912Z,35.20
2019-01-21T05:13:12.945Z,32.77
2019-01-21T05:16:27.809Z,33.63
2019-01-21T05:19:35.193Z,31.07
2019-01-21T05:22:24.909Z,32.03
2019-01-21T05:25:43.038Z,34.03
2019-01-21T05:28:47.110Z,28.40
2019-01-21T05:32:09.705Z,29.13
2019-01-21T05:35:18.227Z,27.63
2019-01-21T05:38:23.737Z,27.03
2019-01-21T05:41:22.578Z,36.13
2019-01-21T05:44:18.886Z,36.30
2019-01-21T05:47:24.737Z,31.00
2019-01-21T05:50:23.903Z,32.53
2019-01-21T05:53:34.306Z,36.23
2019-01-21T05:56:48.781Z,32.80
2019-01-21T05:59:55.024Z,33.73
2019-01-21T06:03:12.484Z,32.37
2019-01-21T06:06:10.569Z,28.70
2019-01-21T06:09:20.555Z,31.47
2019-01-21T06:12:33.238Z,27.63
2019-01-21T06:15:39.968Z,30.20
2019-01-21T06:18:40.857Z,29.50
2019-01-21T06:21:41.672Z,34.07
2019-01-21T06:24:57.068Z,31.07
2019-01-21T06:28:03.758Z,26.37
2019-01-21T06:31:18.051Z,28.93
2019-01-21T06:34:34.284Z,29.47
2019-01-21T06:37:55.258Z,24.77
2019-01-21T06:40:56.593Z,35.20
2019-01-21T06:44:07.006Z,31.23
2019-01-21T06:47:27.064Z,29.47
2019-01-21T06:50:23.893Z,38.73
2019-01-21T06:53:34.281Z,30.53
2019-01-21T06:56:47.454Z,30.40
2019-01-21T06:59:57.214Z,37.03
2019-01-21T07:03:02.904Z,30.37
2019-01-21T07:06:15.485Z,28.80
2019-01-21T07:09:24.767Z,32.40
2019-01-21T07:12:22.049Z,32.17
2019-01-21T07:15:34.810Z,33.27
2019-01-21T07:18:52.785Z,35.00
2019-01-21T07:22:17.356Z,34.10
2019-01-21T07:25:41.573Z,25.93
2019-01-21T07:28:42.790Z,28.70
2019-01-21T07:31:40.394Z,31.60
2019-01-21T07:34:48.369Z,30.33
2019-01-21T07:37:37.909Z,27.23
2019-01-21T07:40:43.604Z,28.70
2019-01-21T07:43:57.973Z,31.77
2019-01-21T07:47:05.552Z,30.53
2019-01-21T07:50:08.088Z,28.50
2019-01-21T07:53:35.142Z,33.37
2019-01-21T07:56:44.889Z,26.57
2019-01-21T07:59:54.265Z,31.43
2019-01-21T08:03:05.703Z,31.97
2019-01-21T08:06:16.467Z,29.67
2019-01-21T08:09:21.802Z,33.00
2019-01-21T08:12:44.567Z,28.27
2019-01-21T08:15:46.304Z,32.23
2019-01-21T08:18:58.859Z,27.80
2019-01-21T08:21:49.972Z,33.63
2019-01-21T08:24:56.869Z,32.77
2019-01-21T08:28:17.539Z,31.57
2019-01-21T08:31:28.255Z,30.00
2019-01-21T08:34:29.210Z,31.13
2019-01-21T08:37:49.082Z,35.63
2019-01-21T08:41:00.226Z,29.27
2019-01-21T08:44:00.304Z,29.43
2019-01-21T08:47:09.571Z,39.37
2019-01-21T08:50:15.848Z,35.00
2019-01-21T08:53:10.857Z,35.27
2019-01-21T08:56:14.885Z,34.67
2019-01-21T08:59:17.994Z,36.40
2019-01-21T09:02:41.735Z,32.20
2019-01-21T09:06:09.008Z,37.87
2019-01-21T09:09:31.695Z,30.87
2019-01-21T09:12:51.093Z,32.60
2019-01-21T09:16:06.826Z,29.83
2019-01-21T09:19:27.738Z,28.10
2019-01-21T09:22:30.196Z,34.50
2019-01-21T09:25:36.278Z,51.30
2019-01-21T09:44:16.634Z,34.30
2019-01-21T09:46:52.032Z,34.43
2019-01-21T09:49:20.799Z,39.30
2019-01-21T09:52:08.434Z,38.73
2019-01-21T09:54:40.018Z,32.87
2019-01-21T09:57:21.485Z,42.90
2019-01-21T09:59:57.204Z,35.13
2019-01-21T10:02:44.416Z,34.57
2019-01-21T10:05:16.403Z,32.77
2019-01-21T10:08:15.622Z,35.67
2019-01-21T10:11:08.680Z,33.87
2019-01-21T10:14:38.385Z,38.93
2019-01-21T10:17:41.935Z,41.00
2019-01-21T10:20:42.321Z,50.27
2019-01-21T10:23:44.820Z,42.97
2019-01-21T10:26:48.627Z,41.47
2019-01-21T10:30:03.835Z,52.17
2019-01-21T10:33:13.819Z,44.93
2019-01-21T10:36:22.405Z,39.93
2019-01-21T10:39:30.698Z,41.63
2019-01-21T10:42:56.722Z,45.50
2019-01-21T10:45:54.676Z,32.77
2019-01-21T10:48:54.827Z,39.00
2019-01-21T10:52:24.502Z,33.70
2019-01-21T10:55:23.730Z,31.97
2019-01-21T10:58:19.601Z,25.13
2019-01-21T11:01:43.120Z,24.47
2019-01-21T11:04:43.313Z,24.20
2019-01-21T11:08:08.877Z,25.13
2019-01-21T11:11:18.880Z,24.60
2019-01-21T11:14:38.981Z,26.03
2019-01-21T11:18:05.934Z,24.63
2019-01-21T11:21:19.380Z,20.60
2019-01-21T11:24:45.589Z,20.60
2019-01-21T11:27:43.799Z,22.10
2019-01-21T11:31:00.106Z,22.93
2019-01-21T11:34:03.144Z,21.20
2019-01-21T11:37:14.168Z,20.30
2019-01-21T11:40:24.190Z,17.23
2019-01-21T11:43:34.620Z,18.60
2019-01-21T11:46:57.342Z,15.83
2019-01-21T11:49:37.162Z,14.10
2019-01-21T11:52:29.714Z,12.50
2019-01-21T11:55:35.649Z,12.70
2019-01-21T11:58:52.209Z,13.30
2019-01-21T12:02:02.843Z,13.77
2019-01-21T12:05:31.964Z,14.47
2019-01-21T12:08:33.894Z,13.97
2019-01-21T12:11:47.466Z,13.37
2019-01-21T12:14:29.294Z,13.53
2019-01-21T12:17:39.188Z,12.93
2019-01-21T12:20:29.638Z,11.10
2019-01-21T12:23:53.375Z,11.77
2019-01-21T12:27:03.265Z,14.67
2019-01-21T12:30:21.999Z,10.63
2019-01-21T12:33:48.786Z,12.03
2019-01-21T12:36:41.708Z,12.83
2019-01-21T12:39:45.669Z,11.33
2019-01-21T12:43:09.158Z,10.30
2019-01-21T12:46:24.035Z,14.33
2019-01-21T12:49:30.250Z,12.53
2019-01-21T12:52:41.825Z,14.93
2019-01-21T12:55:57.324Z,12.50
2019-01-21T12:59:06.809Z,13.20
2019-01-21T13:02:29.164Z,12.97
2019-01-21T13:05:33.408Z,13.33
2019-01-21T13:08:37.054Z,14.93
2019-01-21T13:11:32.860Z,13.27
2019-01-21T13:14:34.719Z,16.10
2019-01-21T13:17:52.252Z,18.27
2019-01-21T13:20:56.473Z,14.43
2019-01-21T13:24:01.602Z,12.43
2019-01-21T13:27:22.558Z,14.13
2019-01-21T13:30:15.690Z,16.03
2019-01-21T13:33:26.459Z,16.60
2019-01-21T13:36:18.908Z,13.37
2019-01-21T13:39:28.719Z,16.50
2019-01-21T13:42:14.609Z,13.37
2019-01-21T13:45:29.384Z,13.17
2019-01-21T13:48:21.766Z,14.37
2019-01-21T13:51:18.999Z,14.93
2019-01-21T13:54:44.876Z,13.13
2019-01-21T13:57:52.173Z,11.50
2019-01-21T14:00:59.694Z,14.13
2019-01-21T14:04:30.058Z,12.97
2019-01-21T14:07:58.134Z,14.13
2019-01-21T14:11:04.700Z,17.03
2019-01-21T14:14:06.284Z,13.43
2019-01-21T14:17:06.360Z,18.57
2019-01-21T14:20:08.509Z,15.90
2019-01-21T14:23:26.645Z,12.37
2019-01-21T14:26:51.199Z,12.07
2019-01-21T14:30:36.826Z,14.23
2019-01-21T14:33:47.466Z,12.47
2019-01-21T14:36:28.947Z,14.07
2019-01-21T14:39:34.142Z,13.40
2019-01-21T14:42:37.085Z,16.47
2019-01-21T14:45:59.544Z,15.20
2019-01-21T14:49:06.144Z,17.20
2019-01-21T14:52:21.093Z,13.53
2019-01-21T14:55:23.557Z,16.83
2019-01-21T14:58:40.782Z,14.97
2019-01-21T15:01:41.720Z,14.33
2019-01-21T15:04:46.280Z,13.90
2019-01-21T15:07:26.381Z,16.50
2019-01-21T15:10:39.058Z,14.30
2019-01-21T15:13:20.706Z,14.93
2019-01-21T15:16:14.247Z,15.40
2019-01-21T15:19:16.392Z,14.83
2019-01-21T15:22:35.241Z,16.00
2019-01-21T15:25:53.031Z,12.67
2019-01-21T15:29:19.063Z,16.23
2019-01-21T15:32:05.686Z,21.13
2019-01-21T15:35:24.388Z,15.50
2019-01-21T15:38:47.051Z,18.10
2019-01-21T15:41:52.358Z,18.67
2019-01-21T15:45:26.695Z,19.73
2019-01-21T15:48:31.366Z,24.50
2019-01-21T15:51:50.991Z,21.40
2019-01-21T15:54:54.523Z,16.37
2019-01-21T15:57:55.834Z,17.03
2019-01-21T16:01:17.119Z,14.83
2019-01-21T16:03:55.549Z,16.07
2019-01-21T16:07:22.329Z,19.10
2019-01-21T16:10:43.137Z,16.07
2019-01-21T16:13:40.276Z,18.17
2019-01-21T16:16:47.498Z,17.90
2019-01-21T16:20:02.379Z,19.23
2019-01-21T16:23:14.136Z,22.03
2019-01-21T16:26:01.079Z,18.87
2019-01-21T16:28:55.215Z,21.43
2019-01-21T16:32:00.803Z,19.90
2019-01-21T16:35:24.721Z,19.27
2019-01-21T16:38:34.673Z,20.33
2019-01-21T16:41:54.197Z,19.87
2019-01-21T16:44:26.730Z,17.20
2019-01-21T16:47:08.414Z,23.60
2019-01-21T16:49:38.927Z,17.73
2019-01-21T16:52:11.615Z,19.07
2019-01-21T16:54:52.244Z,23.73
2019-01-21T16:57:24.822Z,21.23
2019-01-21T16:59:56.771Z,32.97
2019-01-21T17:02:30.193Z,19.10
2019-01-21T17:05:05.282Z,22.57
2019-01-21T17:07:36.128Z,23.70
2019-01-21T17:10:09.870Z,22.50
2019-01-21T17:12:40.650Z,23.60
2019-01-21T17:15:14.517Z,20.43
2019-01-21T17:17:48.031Z,26.77
2019-01-21T17:20:22.041Z,21.20
2019-01-21T17:22:55.025Z,22.77
2019-01-21T17:25:27.276Z,21.23
2019-01-21T17:28:00.924Z,20.27
2019-01-21T17:30:35.746Z,16.70
2019-01-21T17:33:08.393Z,15.53
2019-01-21T17:35:39.161Z,18.83
2019-01-21T17:38:15.671Z,18.20
2019-01-21T17:40:47.775Z,17.13
2019-01-21T17:43:22.088Z,17.33
2019-01-21T17:46:00.493Z,22.27
2019-01-21T17:48:37.287Z,16.30
2019-01-21T17:51:08.183Z,16.27
2019-01-21T17:53:41.267Z,17.43
2019-01-21T17:56:19.203Z,16.80
2019-01-21T17:58:46.283Z,16.37
2019-01-21T18:01:19.957Z,18.40
2019-01-21T18:03:55.387Z,18.37
2019-01-21T18:06:27.918Z,18.70
2019-01-21T18:09:05.246Z,17.03
2019-01-21T18:11:41.449Z,14.30
2019-01-21T18:14:11.498Z,19.50
2019-01-21T18:16:44.469Z,18.53
2019-01-21T18:19:15.300Z,14.57
2019-01-21T18:21:52.893Z,22.20
2019-01-21T18:24:33.653Z,20.57
2019-01-21T18:27:04.195Z,21.23
2019-01-21T18:29:37.607Z,17.47
2019-01-21T18:32:10.187Z,22.10
2019-01-21T18:34:41.186Z,20.00
2019-01-21T18:37:15.188Z,19.30
2019-01-21T18:40:13.806Z,18.73
2019-01-21T18:42:45.245Z,17.70
2019-01-21T18:45:22.402Z,26.73
2019-01-21T18:47:53.308Z,24.93
2019-01-21T18:50:29.170Z,21.93
2019-01-21T18:53:03.073Z,21.43
2019-01-21T18:55:34.253Z,21.20
2019-01-21T18:58:07.409Z,23.33
2019-01-21T19:00:37.907Z,19.30
2019-01-21T19:03:08.554Z,19.30
2019-01-21T19:05:42.051Z,21.23
2019-01-21T19:08:26.153Z,22.53
2019-01-21T19:11:05.521Z,23.73
2019-01-21T19:13:44.178Z,19.37
2019-01-21T19:16:16.413Z,24.93
2019-01-21T19:18:47.631Z,26.70
2019-01-21T19:21:18.285Z,24.47
2019-01-21T19:23:49.952Z,30.17
2019-01-21T19:26:23.053Z,27.60
2019-01-21T19:28:57.938Z,30.03
2019-01-21T19:31:28.544Z,28.00
2019-01-21T19:34:02.686Z,27.53
2019-01-21T19:36:43.432Z,23.40
2019-01-21T19:39:23.982Z,17.53
2019-01-21T19:41:56.269Z,23.93
2019-01-21T19:44:34.293Z,21.53
2019-01-21T19:47:07.736Z,21.53
2019-01-21T19:49:38.397Z,18.83
2019-01-21T19:52:10.573Z,26.27
2019-01-21T19:54:41.265Z,20.23
2019-01-21T19:57:12.092Z,21.93
2019-01-21T19:59:44.563Z,24.40
2019-01-21T20:02:30.236Z,24.10
2019-01-21T20:05:20.731Z,21.47
2019-01-21T20:07:58.955Z,24.07
2019-01-21T20:10:34.707Z,27.67
2019-01-21T20:13:11.297Z,23.13
2019-01-21T20:15:46.490Z,24.20
2019-01-21T20:18:21.891Z,23.57
2019-01-21T20:20:56.938Z,24.90
2019-01-21T20:23:27.985Z,22.70
2019-01-21T20:26:02.190Z,24.23
2019-01-21T20:28:34.043Z,24.30
2019-01-21T20:31:08.937Z,27.83
2019-01-21T20:33:41.117Z,23.80
2019-01-21T20:36:14.518Z,29.43
2019-01-21T20:38:48.306Z,27.50
2019-01-21T20:41:19.343Z,23.90
2019-01-21T20:44:01.006Z,26.73
2019-01-21T20:46:31.501Z,26.40
2019-01-21T20:49:03.245Z,27.30
2019-01-21T20:51:33.975Z,24.43
2019-01-21T20:54:10.236Z,23.70
2019-01-21T20:56:41.285Z,23.13
2019-01-21T20:59:15.331Z,25.27
2019-01-21T21:01:46.145Z,24.10
2019-01-21T21:04:19.258Z,24.23
2019-01-21T21:06:51.536Z,23.80
2019-01-21T21:09:22.557Z,24.63
2019-01-21T21:11:56.037Z,18.23
2019-01-21T21:14:31.667Z,21.83
2019-01-21T21:17:09.855Z,28.20
2019-01-21T21:19:43.567Z,24.67
2019-01-21T21:22:21.124Z,23.87
2019-01-21T21:24:57.097Z,22.13
2019-01-21T21:27:34.711Z,18.67
2019-01-21T21:30:20.896Z,19.77
2019-01-21T21:32:56.962Z,27.17
2019-01-21T21:35:29.016Z,19.30
2019-01-21T21:38:09.232Z,20.07
2019-01-21T21:40:40.957Z,22.33
2019-01-21T21:43:12.317Z,23.30
2019-01-21T21:45:43.282Z,18.20
2019-01-21T21:48:17.118Z,18.97
2019-01-21T21:50:48.268Z,23.10
2019-01-21T21:53:19.126Z,21.03
2019-01-21T21:55:55.060Z,23.13
2019-01-21T21:58:31.734Z,21.90
2019-01-21T22:01:02.644Z,24.97
2019-01-21T22:03:39.404Z,21.90
2019-01-21T22:06:10.720Z,22.83
2019-01-21T22:08:41.489Z,20.83
2019-01-21T22:11:16.371Z,21.17
2019-01-21T22:13:47.094Z,18.30
2019-01-21T22:16:18.650Z,18.73
2019-01-21T22:18:54.111Z,20.70
2019-01-21T22:21:25.017Z,20.93
2019-01-21T22:23:56.254Z,18.53
2019-01-21T22:26:33.761Z,22.73
2019-01-21T22:29:17.056Z,19.17
2019-01-21T22:31:50.576Z,21.13
2019-01-21T22:34:25.662Z,19.13
2019-01-21T22:36:56.493Z,22.87
2019-01-21T22:39:30.200Z,23.57
2019-01-21T22:42:01.124Z,24.43
2019-01-21T22:44:34.865Z,23.77
2019-01-21T22:47:05.849Z,23.17
2019-01-21T22:49:36.628Z,22.70
2019-01-21T22:52:07.416Z,25.57
2019-01-21T22:54:39.813Z,23.77
2019-01-21T22:57:13.234Z,24.03
2019-01-21T22:59:44.879Z,31.13
2019-01-21T23:02:18.245Z,30.73
2019-01-21T23:04:54.651Z,33.20
2019-01-21T23:07:29.072Z,37.83
2019-01-21T23:10:00.207Z,28.43
2019-01-21T23:12:30.995Z,29.10
2019-01-21T23:15:09.650Z,30.43
2019-01-21T23:17:44.579Z,32.17
2019-01-21T23:20:15.314Z,28.53
2019-01-21T23:22:49.153Z,29.30
2019-01-21T23:25:19.324Z,35.60
2019-01-21T23:27:52.554Z,27.27
2019-01-21T23:30:23.935Z,25.37
2019-01-21T23:32:54.858Z,26.77
2019-01-21T23:35:25.679Z,23.67
2019-01-21T23:37:56.471Z,24.00
2019-01-21T23:40:27.218Z,23.33
2019-01-21T23:42:58.493Z,36.30
2019-01-21T23:45:29.167Z,29.63
2019-01-21T23:48:00.153Z,33.07
2019-01-21T23:50:30.948Z,25.37
2019-01-21T23:53:01.592Z,31.07
2019-01-21T23:55:32.570Z,27.13
2019-01-21T23:58:03.755Z,32.07
